METAR AND TAF INFORMATION
METAR FOR LESA
ADDS - METARS form results

(0011 UTC 19 March 2019)
Data provider http://aviationweather.gov/metar/data/
 
METAR text: LESA 190000Z AUTO 07004KT 9000 NCD 02/M03 Q1026
Conditions at: LESA (SALAMANCA (CIV/M, ES) observed 0000 UTC 19 March 2019
Temperature: 2.0°C (36°F)
Dewpoint: -3.0°C (27°F) [RH = 69%]
Pressure (altimeter): 30.30 inches Hg (1026.0 mb)
Winds: from the ENE (70 degrees) at 5 MPH (4 knots; 2.1 m/s)
Visibility: 6 miles ( 9 km)
Ceiling: at least 12,000 feet AGL
Clouds: sky clear below 12,000 feet AGL
Weather: no significant weather observed at this time

METAR text: LESA 182330Z AUTO 13004KT 8000 NCD 02/M03 Q1026
Conditions at: LESA (SALAMANCA (CIV/M, ES) observed 2330 UTC 18 March 2019
Temperature: 2.0°C (36°F)
Dewpoint: -3.0°C (27°F) [RH = 69%]
Pressure (altimeter): 30.30 inches Hg (1026.0 mb)
Winds: from the SE (130 degrees) at 5 MPH (4 knots; 2.1 m/s)
Visibility: 5 miles ( 8 km)
Ceiling: at least 12,000 feet AGL
Clouds: sky clear below 12,000 feet AGL
Weather: no significant weather observed at this time

Forecast for: LESA (SALAMANCA (CIV/M, ES)
Text: TAF LESA 182300Z 1900/1924 06007KT CAVOK TX13/1916Z TNM02/1906Z
Forecast period: 0000 UTC 19 March 2019 to 0000 UTC 20 March 2019
Forecast type: FROM: standard forecast or significant change
Winds: from the ENE (60 degrees) at 8 MPH (7 knots; 3.6 m/s)
Visibility: 6 or more miles 10+ km)
Ceiling: unknown
Clouds: missing
Weather: no significant weather forecast for this period
Text: TEMPO 1912/1918 04022KT
Forecast period: 1200 to 1800 UTC 19 March 2019
Forecast type: TEMPORARY: The following changes expected for less than half the time period
Winds: from the NE (40 degrees) at 25 MPH (22 knots; 11.3 m/s)
Visibility: missing
Ceiling: unknown
Clouds: missing
Weather: no significant weather forecast for this period

AIRPORT MAP

RUNWAY INFORMATION
Runway 03 Runway length 8202 ft Runway width 197 ft
Runway elevation 2595 ft Runway displaced threshold 0 ft Runway heading 28
Runway 21 Runway length 8202 ft Runway width 197 ft
Runway elevation 2586 ft Runway displaced threshold 0 ft Runway heading 208
Runway 08 Runway length 6594 ft Runway width 400 ft
Runway elevation 2587 ft Runway displaced threshold 0 ft Runway heading 74
Runway 26 Runway length 6594 ft Runway width 400 ft
Runway elevation 2588 ft Runway displaced threshold 0 ft Runway heading 254

AIRPORT FREQUENCIES
Type APP Name APP Frequency 124.4 MHZ
Type GND Name GND Frequency 121.85 MHZ
Type TWR Name TWR Frequency 139.3 MHZ

AIRPORT NEAR NAVIGATION AIDS
Type VOR-DME Name Salamanca Frequency 112200 KHZ
Type NDB Name Salamanca Frequency 399 KHZ
Type NDB Name Salamanca Frequency 423 KHZ
Type TACAN Name Salamanca Frequency 113300 KHZ